Sharm el-Sheikh, Egitto

07:47 PM EET del 20 Febbraio 2017 (GMT +0200)
Sharm El Sheikh International | | Change Station

Alt. 151 ft 27.97 °N, 34.38 °E | Updated 47 minutes ago

Clear
Sereno
68 °F
Sembra 68 °F
N
8
Vento Variabile Vento da Nord

Oggi
Massima -- | Minima -- °F
--% Possibilità di precip.
Ieri
Massima -- | Minima -- °F
Precip. -- in
Pressione 30.01 in
Visibilità -9999.0 miglia
Nuvole
Punto di rugiada 34 °F
Umidità 28%
Piovosità 0.00 in
Spessore del manto nevoso Non disponibile.
6:15 AM 5:37 PM
Luna calante, 32% visible
METAR HESH 201700Z 35007KT CAVOK 20/01 Q1016 NOSIG
Pressione 30.01 in
Visibilità -9999.0 miglia
Nuvole
Punto di rugiada 34 °F
Umidità 28%
Piovosità 0.00 in
Spessore del manto nevoso Non disponibile.
6:15 AM 5:37 PM
Luna calante, 32% visible
METAR HESH 201700Z 35007KT CAVOK 20/01 Q1016 NOSIG

Get Your Daily Forecast Email!

Thanks for signing up!

Be on the lookout for a verification email in your inbox.

You'll start receiving the daily forecast at 8 AM.

×

10-Day Weather Forecast

No radar image for this location.
×

Almanac

Astronomia

Feb. 20, 2017 Alba Tramonto
Ora attuale
Crepuscolo civile
Crepuscolo nautico
Crepuscolo astronomico
Luna
Estensione della luce visibile
Lunghezza del giorno
Tomorrow will be .
, % of the Moon is Illuminated

Gli estremi di oggi

Massime Regione Minime Regione

Community

WunderPhotos

Upload Photos

1,962,540 foto caricate!

WunderBlog® & News

Nearby

Qualità dell'aria

  Qualità dell'aria Indice AQ Inquinante
Not available.

Profondità neve

Stazione Profondità Altitudine

Attività sismica

Città  Distanza Mag. Data & Ora
Minimo Magnitudo Mostrato è 2.5.

Temperature delle acque costiere

Località Temperatura

Stations

Stazioni meteo nelle vicinanze

Ubicazione della stazione Temp. Raffreddamento del vento Punto di rugiada Umidità Vento Precip. Alt. Aggiornato Tipo